Kvb Contargo III & X — PD5101 — position and weather

sailwx.info

Track history (hours):
 
Tides and Currents Weather Stations Pressure Air Temp Water Temp Dewpoint Dewpoint Depression Visibility Wind Speed Wind Dir Waves Ship Positions

Kvb Contargo III & X

Last reported at 2014-Aug-29 01:04 UTC. Time now 2014-Aug-29 05:36 UTC.
Position N 47°35' E 007°36'.

Length 182 m.

Type: Ship. MMSI: 244670090.

Date/timePositionNaut miles runAvg speedWind from/ knotsBaromVisibWave heightAir tempDewpointWater temp
2014-Aug-29 01:04N 47°35' E 007°36'0 0.0
2014-Aug-29 00:33N 47°35' E 007°36'0 0.0
2014-Aug-28 23:33N 47°35' E 007°36'0 0.0
2014-Aug-28 22:33N 47°35' E 007°36'0 0.2
2014-Aug-28 21:33N 47°35' E 007°36'0 0.0
2014-Aug-28 20:33N 47°35' E 007°36'0 0.0
2014-Aug-28 19:33N 47°35' E 007°36'0 0.0
2014-Aug-28 18:33N 47°35' E 007°36'0 0.2
2014-Aug-28 17:33N 47°35' E 007°35'1 1.2
2014-Aug-28 16:33N 47°36' E 007°35'0 0.0
2014-Aug-28 15:33N 47°36' E 007°35'0 0.0
2014-Aug-28 14:33N 47°36' E 007°35'4 3.3
2014-Aug-28 13:23N 47°39' E 007°32'63 2.9
2014-Aug-27 15:30N 48°40' E 007°54'4 4.0
2014-Aug-27 14:33N 48°43' E 007°58'6 5.7
2014-Aug-27 13:33N 48°47' E 008°04'7 3.6
2014-Aug-27 11:32N 48°54' E 008°08'5 4.8
2014-Aug-27 10:33N 48°58' E 008°12'5 4.7
2014-Aug-27 09:33N 49°01' E 008°18'1 0.9
2014-Aug-27 08:33N 49°01' E 008°19'1 0.9
2014-Aug-27 07:33N 49°01' E 008°18'5 4.6
2014-Aug-27 06:33N 49°05' E 008°21'5 4.5
2014-Aug-27 05:33N 49°10' E 008°22'5 4.6
2014-Aug-27 04:33N 49°14' E 008°24'5 4.9
2014-Aug-27 03:33N 49°18' E 008°29'113 4.0
2014-Aug-25 23:16N 50°54' E 006°59'3 3.3
2014-Aug-25 22:24N 50°57' E 006°58'13 4.2
2014-Aug-25 19:19N 51°09' E 006°51'2 3.1
2014-Aug-25 18:33N 51°09' E 006°48'4 4.0
2014-Aug-25 17:33N 51°12' E 006°44'1 0.9
2014-Aug-25 16:33N 51°13' E 006°43'0 0.0
2014-Aug-25 15:33N 51°13' E 006°43'0 0.0
2014-Aug-25 14:33N 51°13' E 006°43'0 0.0
2014-Aug-25 13:33N 51°13' E 006°43'0 0.0
2014-Aug-25 12:33N 51°13' E 006°43'0 0.0
2014-Aug-25 11:33N 51°13' E 006°43'0 0.0
2014-Aug-25 10:33N 51°13' E 006°43'0 0.0
2014-Aug-25 09:33N 51°13' E 006°43'0 0.0
2014-Aug-25 08:33N 51°13' E 006°43'0 0.0
2014-Aug-25 07:33N 51°13' E 006°43'0 0.0
2014-Aug-25 06:33N 51°13' E 006°43'0 0.0
2014-Aug-25 05:33N 51°13' E 006°43'0 0.0
2014-Aug-25 04:33N 51°13' E 006°43'0 0.0
2014-Aug-25 03:33N 51°13' E 006°43'0 0.0
2014-Aug-25 02:33N 51°13' E 006°43'0 0.0
2014-Aug-25 01:33N 51°13' E 006°43'0 0.0
2014-Aug-25 00:33N 51°13' E 006°43'0 0.0
2014-Aug-24 23:33N 51°13' E 006°43'0 0.0
2014-Aug-24 22:33N 51°13' E 006°43'0 0.0
2014-Aug-24 21:33N 51°13' E 006°43'0 0.0
2014-Aug-24 20:33N 51°13' E 006°43'0 0.0
2014-Aug-24 19:33N 51°13' E 006°43'0 0.0
2014-Aug-24 18:33N 51°13' E 006°43'0 0.0
2014-Aug-24 17:33N 51°13' E 006°43'0 0.0
2014-Aug-24 16:33N 51°13' E 006°43'0 0.0
2014-Aug-24 15:33N 51°13' E 006°43'0 0.0
2014-Aug-24 14:33N 51°13' E 006°43'0 0.0
2014-Aug-24 13:33N 51°13' E 006°43'0 0.0
2014-Aug-24 12:33N 51°13' E 006°43'0 0.0
2014-Aug-24 11:33N 51°13' E 006°43'0 0.0
2014-Aug-24 10:33N 51°13' E 006°43'84 2.7
2014-Aug-23 03:33N 51°41' E 004°36'0 0.0
2014-Aug-23 02:33N 51°41' E 004°36'0 0.0
2014-Aug-23 01:33N 51°41' E 004°36'0 0.0
2014-Aug-23 00:33N 51°41' E 004°36'0 0.0
2014-Aug-22 23:33N 51°41' E 004°36'0 0.0
2014-Aug-22 22:33N 51°41' E 004°36'0 0.0
2014-Aug-22 21:33N 51°41' E 004°36'0 0.0
2014-Aug-22 20:33N 51°41' E 004°36'0 0.0
2014-Aug-22 19:33N 51°41' E 004°36'0 0.0
2014-Aug-22 18:33N 51°41' E 004°36'0 0.0
2014-Aug-22 17:33N 51°41' E 004°36'0 0.0
2014-Aug-22 16:33N 51°41' E 004°36'0 0.0
2014-Aug-22 15:33N 51°41' E 004°36'0 0.0
2014-Aug-22 14:33N 51°41' E 004°36'0 0.3
2014-Aug-22 13:33N 51°41' E 004°36'6 5.9
2014-Aug-22 12:34N 51°47' E 004°38'6 5.5
2014-Aug-22 11:34N 51°50' E 004°30'6 6.3
2014-Aug-22 10:33N 51°52' E 004°20'6 6.1
2014-Aug-22 09:33N 51°55' E 004°12'6 5.9
2014-Aug-22 08:33N 51°56' E 004°02'1 0.7
2014-Aug-22 07:33N 51°57' E 004°02'0 0.0
2014-Aug-22 06:33N 51°57' E 004°02'0 0.0
2014-Aug-22 05:33N 51°57' E 004°02'0 0.0
2014-Aug-22 04:33N 51°57' E 004°02'0 0.2
2014-Aug-22 03:33N 51°57' E 004°02'0 0.0
2014-Aug-22 02:33N 51°57' E 004°02'0 0.0
2014-Aug-22 01:33N 51°57' E 004°02'0 0.0
2014-Aug-22 00:33N 51°57' E 004°02'0 0.0
2014-Aug-21 23:33N 51°57' E 004°02'0 0.0
2014-Aug-21 22:33N 51°57' E 004°02'2 1.9
2014-Aug-21 21:33N 51°57' E 004°05'2 2.0
2014-Aug-21 20:33N 51°58' E 004°03'1 0.8
2014-Aug-21 19:33N 51°59' E 004°01'0 0.0
2014-Aug-21 18:33N 51°59' E 004°01'3 2.9
2014-Aug-21 17:33N 51°57' E 004°05'2 1.7
2014-Aug-21 16:33N 51°57' E 004°02'7 7.1
2014-Aug-21 15:33N 51°54' E 004°13'5 5.5
2014-Aug-21 14:33N 51°54' E 004°22'2 1.7
2014-Aug-21 13:33N 51°53' E 004°24'0 0.0
2014-Aug-21 12:33N 51°53' E 004°24'0 0.1
2014-Aug-21 11:33N 51°53' E 004°24'1 0.2
2014-Aug-21 07:33N 51°53' E 004°25'1 0.9
2014-Aug-21 06:30N 51°54' E 004°24'1 0.9
2014-Aug-21 05:33N 51°53' E 004°25'1 0.1
2014-Aug-20 19:33N 51°54' E 004°24'8 7.7
2014-Aug-20 18:33N 51°53' E 004°37'8 7.6
2014-Aug-20 17:33N 51°46' E 004°38'5 3.8
2014-Aug-20 16:14N 51°41' E 004°36'0 0.2
2014-Aug-20 15:33N 51°41' E 004°36'2 1.7
2014-Aug-20 14:32N 51°42' E 004°34'6 5.3
2014-Aug-20 13:27N 51°41' E 004°25'4 4.6
2014-Aug-20 12:33N 51°39' E 004°19'6 6.2
2014-Aug-20 11:33N 51°34' E 004°13'8 7.3
2014-Aug-20 10:31N 51°27' E 004°14'6 6.3
2014-Aug-20 09:31N 51°21' E 004°18'5 5.5
2014-Aug-20 08:33N 51°16' E 004°20'2 1.9
2014-Aug-20 07:33N 51°18' E 004°18'2 1.5
2014-Aug-20 06:33N 51°18' E 004°16'0 0.2
2014-Aug-20 05:33N 51°18' E 004°16'0 0.2
2014-Aug-20 04:31N 51°18' E 004°16'0 0.0
2014-Aug-20 03:29N 51°18' E 004°16'0 0.0
2014-Aug-20 02:33N 51°18' E 004°16'0 0.0
2014-Aug-20 01:31N 51°18' E 004°16'0 0.0
2014-Aug-20 00:33N 51°18' E 004°16'0 0.0
2014-Aug-19 23:32N 51°18' E 004°16'2 1.9
2014-Aug-19 22:33N 51°19' E 004°16'1 0.9
2014-Aug-19 21:33N 51°20' E 004°16'0 0.0
2014-Aug-19 20:33N 51°20' E 004°16'2 1.6
2014-Aug-19 19:34N 51°19' E 004°17'0 0.0
2014-Aug-19 18:33N 51°19' E 004°17'0 0.0
2014-Aug-19 17:33N 51°19' E 004°17'0 0.0
2014-Aug-19 16:33N 51°19' E 004°17'0 0.0
2014-Aug-19 15:33N 51°19' E 004°17'2 2.0
2014-Aug-19 14:27N 51°21' E 004°16'0 0.2
2014-Aug-19 13:30N 51°21' E 004°16'5 5.5
2014-Aug-19 12:33N 51°17' E 004°20'0 0.2
2014-Aug-19 11:33N 51°17' E 004°20'1 0.6
2014-Aug-19 10:33N 51°16' E 004°21'0 0.2
2014-Aug-19 09:33N 51°16' E 004°21'0 0.0
2014-Aug-19 08:33N 51°16' E 004°21'0 0.0
2014-Aug-19 07:33N 51°16' E 004°21'0 0.1
2014-Aug-19 06:33N 51°16' E 004°21'1 0.6
2014-Aug-19 05:33N 51°17' E 004°21'0 0.0
2014-Aug-19 04:33N 51°17' E 004°21'1 1.4
2014-Aug-19 03:29N 51°18' E 004°20'0 0.0
2014-Aug-19 02:29N 51°18' E 004°20'0 0.0
2014-Aug-19 01:33N 51°18' E 004°20'  
Track history (hours):
 
Tides and Currents Weather Stations Pressure Air Temp Water Temp Dewpoint Dewpoint Depression Visibility Wind Speed Wind Dir Waves Ship Positions

Kvb Contargo III & X

Last reported at 2014-Aug-29 01:04 UTC. Time now 2014-Aug-29 05:36 UTC.
Position N 47°35' E 007°36'.

Length 182 m.

Type: Ship. MMSI: 244670090.

Date/timePositionNaut miles runAvg speedWind from/ knotsBaromVisibWave heightAir tempDewpointWater temp
2014-Aug-29 01:04N 47°35' E 007°36'0 0.0
2014-Aug-29 00:33N 47°35' E 007°36'0 0.0
2014-Aug-28 23:33N 47°35' E 007°36'0 0.0
2014-Aug-28 22:33N 47°35' E 007°36'0 0.2
2014-Aug-28 21:33N 47°35' E 007°36'0 0.0
2014-Aug-28 20:33N 47°35' E 007°36'0 0.0
2014-Aug-28 19:33N 47°35' E 007°36'0 0.0
2014-Aug-28 18:33N 47°35' E 007°36'0 0.2
2014-Aug-28 17:33N 47°35' E 007°35'1 1.2
2014-Aug-28 16:33N 47°36' E 007°35'0 0.0
2014-Aug-28 15:33N 47°36' E 007°35'0 0.0
2014-Aug-28 14:33N 47°36' E 007°35'4 3.3
2014-Aug-28 13:23N 47°39' E 007°32'63 2.9
2014-Aug-27 15:30N 48°40' E 007°54'4 4.0
2014-Aug-27 14:33N 48°43' E 007°58'6 5.7
2014-Aug-27 13:33N 48°47' E 008°04'7 3.6
2014-Aug-27 11:32N 48°54' E 008°08'5 4.8
2014-Aug-27 10:33N 48°58' E 008°12'5 4.7
2014-Aug-27 09:33N 49°01' E 008°18'1 0.9
2014-Aug-27 08:33N 49°01' E 008°19'1 0.9
2014-Aug-27 07:33N 49°01' E 008°18'5 4.6
2014-Aug-27 06:33N 49°05' E 008°21'5 4.5
2014-Aug-27 05:33N 49°10' E 008°22'5 4.6
2014-Aug-27 04:33N 49°14' E 008°24'5 4.9
2014-Aug-27 03:33N 49°18' E 008°29'113 4.0
2014-Aug-25 23:16N 50°54' E 006°59'3 3.3
2014-Aug-25 22:24N 50°57' E 006°58'13 4.2
2014-Aug-25 19:19N 51°09' E 006°51'2 3.1
2014-Aug-25 18:33N 51°09' E 006°48'4 4.0
2014-Aug-25 17:33N 51°12' E 006°44'1 0.9
2014-Aug-25 16:33N 51°13' E 006°43'0 0.0
2014-Aug-25 15:33N 51°13' E 006°43'0 0.0
2014-Aug-25 14:33N 51°13' E 006°43'0 0.0
2014-Aug-25 13:33N 51°13' E 006°43'0 0.0
2014-Aug-25 12:33N 51°13' E 006°43'0 0.0
2014-Aug-25 11:33N 51°13' E 006°43'0 0.0
2014-Aug-25 10:33N 51°13' E 006°43'0 0.0
2014-Aug-25 09:33N 51°13' E 006°43'0 0.0
2014-Aug-25 08:33N 51°13' E 006°43'0 0.0
2014-Aug-25 07:33N 51°13' E 006°43'0 0.0
2014-Aug-25 06:33N 51°13' E 006°43'0 0.0
2014-Aug-25 05:33N 51°13' E 006°43'0 0.0
2014-Aug-25 04:33N 51°13' E 006°43'0 0.0
2014-Aug-25 03:33N 51°13' E 006°43'0 0.0
2014-Aug-25 02:33N 51°13' E 006°43'0 0.0
2014-Aug-25 01:33N 51°13' E 006°43'0 0.0
2014-Aug-25 00:33N 51°13' E 006°43'0 0.0
2014-Aug-24 23:33N 51°13' E 006°43'0 0.0
2014-Aug-24 22:33N 51°13' E 006°43'0 0.0
2014-Aug-24 21:33N 51°13' E 006°43'0 0.0
2014-Aug-24 20:33N 51°13' E 006°43'0 0.0
2014-Aug-24 19:33N 51°13' E 006°43'0 0.0
2014-Aug-24 18:33N 51°13' E 006°43'0 0.0
2014-Aug-24 17:33N 51°13' E 006°43'0 0.0
2014-Aug-24 16:33N 51°13' E 006°43'0 0.0
2014-Aug-24 15:33N 51°13' E 006°43'0 0.0
2014-Aug-24 14:33N 51°13' E 006°43'0 0.0
2014-Aug-24 13:33N 51°13' E 006°43'0 0.0
2014-Aug-24 12:33N 51°13' E 006°43'0 0.0
2014-Aug-24 11:33N 51°13' E 006°43'0 0.0
2014-Aug-24 10:33N 51°13' E 006°43'84 2.7
2014-Aug-23 03:33N 51°41' E 004°36'0 0.0
2014-Aug-23 02:33N 51°41' E 004°36'0 0.0
2014-Aug-23 01:33N 51°41' E 004°36'0 0.0
2014-Aug-23 00:33N 51°41' E 004°36'0 0.0
2014-Aug-22 23:33N 51°41' E 004°36'0 0.0
2014-Aug-22 22:33N 51°41' E 004°36'0 0.0
2014-Aug-22 21:33N 51°41' E 004°36'0 0.0
2014-Aug-22 20:33N 51°41' E 004°36'0 0.0
2014-Aug-22 19:33N 51°41' E 004°36'0 0.0
2014-Aug-22 18:33N 51°41' E 004°36'0 0.0
2014-Aug-22 17:33N 51°41' E 004°36'0 0.0
2014-Aug-22 16:33N 51°41' E 004°36'0 0.0
2014-Aug-22 15:33N 51°41' E 004°36'0 0.0
2014-Aug-22 14:33N 51°41' E 004°36'0 0.3
2014-Aug-22 13:33N 51°41' E 004°36'6 5.9
2014-Aug-22 12:34N 51°47' E 004°38'6 5.5
2014-Aug-22 11:34N 51°50' E 004°30'6 6.3
2014-Aug-22 10:33N 51°52' E 004°20'6 6.1
2014-Aug-22 09:33N 51°55' E 004°12'6 5.9
2014-Aug-22 08:33N 51°56' E 004°02'1 0.7
2014-Aug-22 07:33N 51°57' E 004°02'0 0.0
2014-Aug-22 06:33N 51°57' E 004°02'0 0.0
2014-Aug-22 05:33N 51°57' E 004°02'0 0.0
2014-Aug-22 04:33N 51°57' E 004°02'0 0.2
2014-Aug-22 03:33N 51°57' E 004°02'0 0.0
2014-Aug-22 02:33N 51°57' E 004°02'0 0.0
2014-Aug-22 01:33N 51°57' E 004°02'0 0.0
2014-Aug-22 00:33N 51°57' E 004°02'0 0.0
2014-Aug-21 23:33N 51°57' E 004°02'0 0.0
2014-Aug-21 22:33N 51°57' E 004°02'2 1.9
2014-Aug-21 21:33N 51°57' E 004°05'2 2.0
2014-Aug-21 20:33N 51°58' E 004°03'1 0.8
2014-Aug-21 19:33N 51°59' E 004°01'0 0.0
2014-Aug-21 18:33N 51°59' E 004°01'3 2.9
2014-Aug-21 17:33N 51°57' E 004°05'2 1.7
2014-Aug-21 16:33N 51°57' E 004°02'7 7.1
2014-Aug-21 15:33N 51°54' E 004°13'5 5.5
2014-Aug-21 14:33N 51°54' E 004°22'2 1.7
2014-Aug-21 13:33N 51°53' E 004°24'0 0.0
2014-Aug-21 12:33N 51°53' E 004°24'0 0.1
2014-Aug-21 11:33N 51°53' E 004°24'1 0.2
2014-Aug-21 07:33N 51°53' E 004°25'1 0.9
2014-Aug-21 06:30N 51°54' E 004°24'1 0.9
2014-Aug-21 05:33N 51°53' E 004°25'1 0.1
2014-Aug-20 19:33N 51°54' E 004°24'8 7.7
2014-Aug-20 18:33N 51°53' E 004°37'8 7.6
2014-Aug-20 17:33N 51°46' E 004°38'5 3.8
2014-Aug-20 16:14N 51°41' E 004°36'0 0.2
2014-Aug-20 15:33N 51°41' E 004°36'2 1.7
2014-Aug-20 14:32N 51°42' E 004°34'6 5.3
2014-Aug-20 13:27N 51°41' E 004°25'4 4.6
2014-Aug-20 12:33N 51°39' E 004°19'6 6.2
2014-Aug-20 11:33N 51°34' E 004°13'8 7.3
2014-Aug-20 10:31N 51°27' E 004°14'6 6.3
2014-Aug-20 09:31N 51°21' E 004°18'5 5.5
2014-Aug-20 08:33N 51°16' E 004°20'2 1.9
2014-Aug-20 07:33N 51°18' E 004°18'2 1.5
2014-Aug-20 06:33N 51°18' E 004°16'0 0.2
2014-Aug-20 05:33N 51°18' E 004°16'0 0.2
2014-Aug-20 04:31N 51°18' E 004°16'0 0.0
2014-Aug-20 03:29N 51°18' E 004°16'0 0.0
2014-Aug-20 02:33N 51°18' E 004°16'0 0.0
2014-Aug-20 01:31N 51°18' E 004°16'0 0.0
2014-Aug-20 00:33N 51°18' E 004°16'0 0.0
2014-Aug-19 23:32N 51°18' E 004°16'2 1.9
2014-Aug-19 22:33N 51°19' E 004°16'1 0.9
2014-Aug-19 21:33N 51°20' E 004°16'0 0.0
2014-Aug-19 20:33N 51°20' E 004°16'2 1.6
2014-Aug-19 19:34N 51°19' E 004°17'0 0.0
2014-Aug-19 18:33N 51°19' E 004°17'0 0.0
2014-Aug-19 17:33N 51°19' E 004°17'0 0.0
2014-Aug-19 16:33N 51°19' E 004°17'0 0.0
2014-Aug-19 15:33N 51°19' E 004°17'2 2.0
2014-Aug-19 14:27N 51°21' E 004°16'0 0.2
2014-Aug-19 13:30N 51°21' E 004°16'5 5.5
2014-Aug-19 12:33N 51°17' E 004°20'0 0.2
2014-Aug-19 11:33N 51°17' E 004°20'1 0.6
2014-Aug-19 10:33N 51°16' E 004°21'0 0.2
2014-Aug-19 09:33N 51°16' E 004°21'0 0.0
2014-Aug-19 08:33N 51°16' E 004°21'0 0.0
2014-Aug-19 07:33N 51°16' E 004°21'0 0.1
2014-Aug-19 06:33N 51°16' E 004°21'1 0.6
2014-Aug-19 05:33N 51°17' E 004°21'0 0.0
2014-Aug-19 04:33N 51°17' E 004°21'1 1.4
2014-Aug-19 03:29N 51°18' E 004°20'0 0.0
2014-Aug-19 02:29N 51°18' E 004°20'0 0.0
2014-Aug-19 01:33N 51°18' E 004°20'  

Dump ship's entire track history